createdAt,value
2018-09-27T00:00:58.312Z,100260.89
2018-09-27T00:03:26.710Z,100253.60
2018-09-27T00:05:55.002Z,100266.50
2018-09-27T00:08:23.322Z,100263.64
2018-09-27T00:10:51.647Z,100255.99
2018-09-27T00:13:20.019Z,100255.98
2018-09-27T00:15:48.487Z,100258.20
2018-09-27T00:18:16.816Z,100247.24
2018-09-27T00:20:45.119Z,100251.86
2018-09-27T00:23:13.564Z,100256.34
2018-09-27T00:25:42.235Z,100262.95
2018-09-27T00:28:10.571Z,100258.45
2018-09-27T00:30:38.851Z,100258.68
2018-09-27T00:33:07.175Z,100251.37
2018-09-27T00:35:35.487Z,100248.14
2018-09-27T00:38:03.807Z,100242.19
2018-09-27T00:40:32.110Z,100247.95
2018-09-27T00:43:00.411Z,100241.88
2018-09-27T00:45:28.707Z,100236.77
2018-09-27T00:47:57.115Z,100238.84
2018-09-27T00:50:25.412Z,100237.87
2018-09-27T00:52:53.762Z,100235.97
2018-09-27T00:55:22.047Z,100230.45
2018-09-27T00:57:50.403Z,100236.84
2018-09-27T01:00:18.712Z,100237.20
2018-09-27T01:02:47.063Z,100239.59
2018-09-27T01:05:15.385Z,100246.84
2018-09-27T01:07:43.715Z,100244.72
2018-09-27T01:10:12.031Z,100232.52
2018-09-27T01:12:40.551Z,100242.83
2018-09-27T01:15:08.853Z,100241.28
2018-09-27T01:17:37.160Z,100235.80
2018-09-27T01:20:05.530Z,100232.09
2018-09-27T01:22:34.045Z,100222.86
2018-09-27T01:25:02.389Z,100223.45
2018-09-27T01:27:30.752Z,100220.84
2018-09-27T01:29:59.185Z,100204.70
2018-09-27T01:32:27.512Z,100215.03
2018-09-27T01:34:55.814Z,100222.78
2018-09-27T01:37:24.126Z,100222.59
2018-09-27T01:39:52.602Z,100211.88
2018-09-27T01:42:20.939Z,100214.16
2018-09-27T01:44:49.355Z,100218.56
2018-09-27T01:47:17.680Z,100200.00
2018-09-27T01:49:46.038Z,100201.22
2018-09-27T01:52:14.435Z,100195.51
2018-09-27T01:54:42.750Z,100201.91
2018-09-27T01:57:11.116Z,100189.53
2018-09-27T01:59:39.445Z,100191.44
2018-09-27T02:02:07.785Z,100189.13
2018-09-27T02:04:36.105Z,100197.13
2018-09-27T02:07:04.399Z,100192.95
2018-09-27T02:09:32.733Z,100190.06
2018-09-27T02:12:01.023Z,100192.83
2018-09-27T02:14:29.352Z,100180.03
2018-09-27T02:16:57.674Z,100177.52
2018-09-27T02:19:26.139Z,100179.55
2018-09-27T02:21:54.430Z,100181.73
2018-09-27T02:24:22.748Z,100172.00
2018-09-27T02:26:51.048Z,100173.86
2018-09-27T02:29:19.407Z,100169.72
2018-09-27T02:31:47.872Z,100166.95
2018-09-27T02:34:16.229Z,100164.88
2018-09-27T02:36:51.236Z,100173.64
2018-09-27T02:39:19.576Z,100167.04
2018-09-27T02:41:47.898Z,100164.38
2018-09-27T02:44:16.260Z,100154.15
2018-09-27T02:46:44.603Z,100159.88
2018-09-27T02:49:12.937Z,100162.30
2018-09-27T02:51:41.251Z,100160.13
2018-09-27T02:54:09.594Z,100159.86
2018-09-27T02:56:38.517Z,100150.98
2018-09-27T02:59:06.875Z,100153.28
2018-09-27T03:01:35.201Z,100154.27
2018-09-27T03:04:03.545Z,100147.09
2018-09-27T03:06:32.080Z,100147.33
2018-09-27T03:09:00.542Z,100142.07
2018-09-27T03:11:28.879Z,100141.09
2018-09-27T03:13:57.321Z,100136.71
2018-09-27T03:16:25.681Z,100132.34
2018-09-27T03:18:54.047Z,100133.05
2018-09-27T03:21:22.381Z,100133.05
2018-09-27T03:23:50.759Z,100128.66
2018-09-27T03:26:19.095Z,100129.86
2018-09-27T03:28:47.502Z,100135.58
2018-09-27T03:31:15.863Z,100124.13
2018-09-27T03:33:44.239Z,100128.77
2018-09-27T03:36:12.575Z,100117.42
2018-09-27T03:38:40.934Z,100125.62
2018-09-27T03:41:09.301Z,100126.81
2018-09-27T03:43:37.667Z,100131.96
2018-09-27T03:46:06.213Z,100133.30
2018-09-27T03:48:34.540Z,100130.88
2018-09-27T03:51:02.894Z,100132.44
2018-09-27T03:53:31.516Z,100129.53
2018-09-27T03:55:59.984Z,100130.25
2018-09-27T03:58:28.387Z,100132.09
2018-09-27T04:00:56.867Z,100131.84
2018-09-27T04:03:25.449Z,100122.22
2018-09-27T04:05:53.655Z,100121.84
2018-09-27T04:08:21.976Z,100121.36
2018-09-27T04:10:50.409Z,100122.34
2018-09-27T04:13:18.756Z,100124.17
2018-09-27T04:15:47.178Z,100123.33
2018-09-27T04:18:15.455Z,100125.75
2018-09-27T04:20:50.585Z,100124.06
2018-09-27T04:23:20.380Z,100124.66
2018-09-27T04:25:49.013Z,100127.94
2018-09-27T04:28:17.523Z,100124.06
2018-09-27T04:30:46.001Z,100120.87
2018-09-27T04:33:14.999Z,100121.11
2018-09-27T04:35:43.585Z,100126.49
2018-09-27T04:38:11.989Z,100124.52
2018-09-27T04:40:40.361Z,100130.02
2018-09-27T04:43:08.716Z,100130.52
2018-09-27T04:45:37.149Z,100127.20
2018-09-27T04:48:05.561Z,100132.56
2018-09-27T04:50:33.902Z,100133.53
2018-09-27T04:53:02.391Z,100128.55
2018-09-27T04:55:30.712Z,100136.47
2018-09-27T04:57:59.055Z,100126.81
2018-09-27T05:00:27.397Z,100134.00
2018-09-27T05:02:55.709Z,100134.00
2018-09-27T05:05:24.021Z,100134.00
2018-09-27T05:07:52.325Z,100134.15
2018-09-27T05:10:20.651Z,100135.48
2018-09-27T05:12:48.948Z,100137.09
2018-09-27T05:15:18.349Z,100143.42
2018-09-27T05:17:46.694Z,100137.47
2018-09-27T05:20:14.970Z,100138.42
2018-09-27T05:22:43.338Z,100136.59
2018-09-27T05:25:11.805Z,100142.89
2018-09-27T05:27:40.316Z,100141.06
2018-09-27T05:30:08.669Z,100140.82
2018-09-27T05:32:37.045Z,100138.63
2018-09-27T05:35:05.509Z,100145.33
2018-09-27T05:37:33.875Z,100145.78
2018-09-27T05:40:02.296Z,100151.09
2018-09-27T05:42:30.570Z,100148.69
2018-09-27T05:44:58.935Z,100145.14
2018-09-27T05:47:27.464Z,100153.42
2018-09-27T05:49:55.965Z,100145.27
2018-09-27T05:52:24.365Z,100147.81
2018-09-27T05:54:52.741Z,100148.38
2018-09-27T05:57:22.363Z,100148.84
2018-09-27T05:59:50.793Z,100147.20
2018-09-27T06:02:19.125Z,100149.47
2018-09-27T06:04:47.446Z,100152.08
2018-09-27T06:07:15.898Z,100148.31
2018-09-27T06:09:44.258Z,100145.41
2018-09-27T06:12:12.573Z,100142.98
2018-09-27T06:14:40.870Z,100141.03
2018-09-27T06:17:09.218Z,100142.77
2018-09-27T06:19:37.518Z,100136.92
2018-09-27T06:22:05.899Z,100135.22
2018-09-27T06:24:34.177Z,100138.48
2018-09-27T06:27:02.497Z,100142.04
2018-09-27T06:29:30.815Z,100145.36
2018-09-27T06:31:59.111Z,100143.41
2018-09-27T06:34:27.392Z,100141.45
2018-09-27T06:36:55.716Z,100141.11
2018-09-27T06:39:24.021Z,100134.66
2018-09-27T06:41:52.353Z,100135.64
2018-09-27T06:44:20.644Z,100127.94
2018-09-27T06:46:48.958Z,100123.66
2018-09-27T06:49:17.259Z,100130.00
2018-09-27T06:51:45.558Z,100128.30
2018-09-27T06:54:14.005Z,100130.84
2018-09-27T06:56:42.444Z,100130.25
2018-09-27T06:59:10.677Z,100139.38
2018-09-27T07:01:38.985Z,100137.55
2018-09-27T07:04:07.470Z,100139.88
2018-09-27T07:06:35.778Z,100133.88
2018-09-27T07:09:05.356Z,100131.45
2018-09-27T07:11:33.700Z,100137.17
2018-09-27T07:14:01.976Z,100139.38
2018-09-27T07:16:30.350Z,100139.61
2018-09-27T07:19:01.569Z,100133.26
2018-09-27T07:21:30.008Z,100140.09
2018-09-27T07:23:58.281Z,100141.88
2018-09-27T07:26:26.660Z,100141.66
2018-09-27T07:28:54.892Z,100142.70
2018-09-27T07:31:23.177Z,100142.13
2018-09-27T07:33:51.469Z,100136.75
2018-09-27T07:36:19.800Z,100139.84
2018-09-27T07:38:48.109Z,100137.02
2018-09-27T07:41:16.418Z,100134.06
2018-09-27T07:43:44.700Z,100140.28
2018-09-27T07:46:13.010Z,100136.66
2018-09-27T07:48:41.373Z,100142.28
2018-09-27T07:51:09.674Z,100137.50
2018-09-27T07:53:38.537Z,100138.06
2018-09-27T07:56:07.261Z,100138.52
2018-09-27T07:58:35.634Z,100140.48
2018-09-27T08:01:03.936Z,100140.58
2018-09-27T08:03:32.361Z,100135.05
2018-09-27T08:06:00.695Z,100138.64
2018-09-27T08:08:29.172Z,100138.13
2018-09-27T08:10:57.447Z,100140.58
2018-09-27T08:13:26.837Z,100136.95
2018-09-27T08:15:55.206Z,100140.71
2018-09-27T08:18:23.667Z,100141.48
2018-09-27T08:20:52.004Z,100130.09
2018-09-27T08:23:20.629Z,100137.58
2018-09-27T08:25:49.324Z,100127.17
2018-09-27T08:28:18.106Z,100123.20
2018-09-27T08:30:46.806Z,100118.55
2018-09-27T08:33:15.076Z,100117.42
2018-09-27T08:35:43.405Z,100117.46
2018-09-27T08:38:11.827Z,100121.03
2018-09-27T08:40:40.711Z,100117.11
2018-09-27T08:43:09.149Z,100115.70
2018-09-27T08:45:43.895Z,100116.30
2018-09-27T08:48:12.173Z,100110.81
2018-09-27T08:50:40.930Z,100107.98
2018-09-27T08:53:09.303Z,100110.42
2018-09-27T08:55:37.697Z,100111.28
2018-09-27T08:58:06.027Z,100108.09
2018-09-27T09:00:34.309Z,100096.55
2018-09-27T09:03:02.781Z,100091.03
2018-09-27T09:05:31.125Z,100087.38
2018-09-27T09:07:59.844Z,100083.04
2018-09-27T09:10:28.193Z,100082.25
2018-09-27T09:12:56.567Z,100076.22
2018-09-27T09:15:24.954Z,100067.98
2018-09-27T09:17:53.380Z,100066.48
2018-09-27T09:20:21.754Z,100064.54
2018-09-27T09:22:50.180Z,100066.23
2018-09-27T09:25:20.864Z,100056.40
2018-09-27T09:27:49.188Z,100054.80
2018-09-27T09:30:17.691Z,100055.45
2018-09-27T09:32:46.158Z,100045.91
2018-09-27T09:35:14.579Z,100056.73
2018-09-27T09:37:42.937Z,100052.44
2018-09-27T09:40:11.349Z,100044.68
2018-09-27T09:42:39.850Z,100034.63
2018-09-27T09:45:08.298Z,100033.80
2018-09-27T09:47:39.779Z,100028.84
2018-09-27T09:50:08.228Z,100026.21
2018-09-27T09:52:36.503Z,100022.25
2018-09-27T09:55:05.678Z,100019.31
2018-09-27T09:57:33.988Z,100014.72
2018-09-27T10:00:02.362Z,100013.30
2018-09-27T10:02:30.781Z,100001.92
2018-09-27T10:04:59.166Z,99993.89
2018-09-27T10:07:27.760Z,99988.44
2018-09-27T10:09:56.163Z,99988.88
2018-09-27T10:12:25.137Z,99985.52
2018-09-27T10:14:53.564Z,99990.67
2018-09-27T10:17:23.205Z,99994.78
2018-09-27T10:19:51.695Z,99982.62
2018-09-27T10:22:20.225Z,99975.33
2018-09-27T10:24:48.853Z,99974.53
2018-09-27T10:27:17.241Z,99965.56
2018-09-27T10:29:45.719Z,99963.95
2018-09-27T10:32:14.176Z,99957.38
2018-09-27T10:37:19.458Z,99952.30
2018-09-27T10:39:47.979Z,99954.52
2018-09-27T10:42:16.819Z,99953.08
2018-09-27T10:44:45.164Z,99952.16
2018-09-27T10:50:07.226Z,99942.05
2018-09-27T10:52:35.534Z,99940.85
2018-09-27T10:55:08.568Z,99935.94
2018-09-27T10:57:36.898Z,99930.61
2018-09-27T11:00:05.483Z,99924.91
2018-09-27T11:02:33.804Z,99919.88
2018-09-27T11:05:02.292Z,99927.56
2018-09-27T11:07:30.609Z,99917.41
2018-09-27T11:09:58.995Z,99916.84
2018-09-27T11:12:27.290Z,99915.55
2018-09-27T11:14:55.706Z,99912.67
2018-09-27T11:17:24.150Z,99907.45
2018-09-27T11:19:52.558Z,99894.41
2018-09-27T11:22:20.857Z,99882.23
2018-09-27T11:24:49.307Z,99880.52
2018-09-27T11:27:17.738Z,99875.62
2018-09-27T11:29:51.528Z,99874.42
2018-09-27T11:32:25.322Z,99865.81
2018-09-27T11:34:53.670Z,99865.65
2018-09-27T11:37:22.180Z,99863.59
2018-09-27T11:39:50.553Z,99858.36
2018-09-27T11:42:18.908Z,99847.68
2018-09-27T11:44:47.266Z,99849.86
2018-09-27T11:47:15.638Z,99843.95
2018-09-27T11:49:44.398Z,99828.20
2018-09-27T11:52:12.578Z,99826.19
2018-09-27T11:54:40.922Z,99821.41
2018-09-27T11:57:09.238Z,99817.13
2018-09-27T11:59:37.691Z,99814.58
2018-09-27T12:02:06.017Z,99811.36
2018-09-27T12:04:34.347Z,99809.14
2018-09-27T12:07:02.700Z,99800.47
2018-09-27T12:09:31.055Z,99792.63
2018-09-27T12:11:59.906Z,99790.65
2018-09-27T12:14:28.477Z,99788.19
2018-09-27T12:16:56.752Z,99782.73
2018-09-27T12:19:25.149Z,99780.87
2018-09-27T12:21:53.464Z,99776.08
2018-09-27T12:24:21.839Z,99777.84
2018-09-27T12:26:50.192Z,99769.72
2018-09-27T12:29:18.822Z,99761.56
2018-09-27T12:31:47.131Z,99756.09
2018-09-27T12:34:15.465Z,99747.88
2018-09-27T12:36:43.867Z,99742.92
2018-09-27T12:39:12.968Z,99742.34
2018-09-27T12:41:41.451Z,99743.05
2018-09-27T12:44:09.827Z,99735.75
2018-09-27T12:46:38.302Z,99729.80
2018-09-27T12:49:06.617Z,99729.10
2018-09-27T12:51:35.039Z,99726.20
2018-09-27T12:54:03.314Z,99721.33
2018-09-27T12:56:31.629Z,99713.85
2018-09-27T12:58:59.955Z,99711.13
2018-09-27T13:01:28.364Z,99702.75
2018-09-27T13:03:56.715Z,99694.41
2018-09-27T13:06:26.544Z,99694.55
2018-09-27T13:08:55.058Z,99682.69
2018-09-27T13:11:23.340Z,99687.30
2018-09-27T13:13:51.686Z,99682.03
2018-09-27T13:16:20.075Z,99675.25
2018-09-27T13:18:48.428Z,99677.88
2018-09-27T13:21:16.859Z,99667.28
2018-09-27T13:23:45.225Z,99660.13
2018-09-27T13:26:13.610Z,99661.09
2018-09-27T13:28:42.086Z,99655.66
2018-09-27T13:31:10.310Z,99645.11
2018-09-27T13:33:38.613Z,99647.91
2018-09-27T13:36:06.980Z,99646.05
2018-09-27T13:38:35.317Z,99634.31
2018-09-27T13:41:03.688Z,99630.68
2018-09-27T13:43:31.999Z,99625.08
2018-09-27T13:46:00.341Z,99629.29
2018-09-27T13:48:28.641Z,99610.19
2018-09-27T13:50:57.002Z,99614.98
2018-09-27T13:53:25.323Z,99602.94
2018-09-27T13:55:53.670Z,99595.33
2018-09-27T13:58:22.009Z,99600.23
2018-09-27T14:00:50.576Z,99595.05
2018-09-27T14:03:18.874Z,99586.05
2018-09-27T14:05:47.537Z,99579.84
2018-09-27T14:08:15.834Z,99580.59
2018-09-27T14:10:44.159Z,99575.41
2018-09-27T14:13:12.470Z,99576.78
2018-09-27T14:15:40.893Z,99570.75
2018-09-27T14:18:09.263Z,99562.80
2018-09-27T14:20:38.923Z,99561.01
2018-09-27T14:23:07.444Z,99552.73
2018-09-27T14:25:36.217Z,99555.50
2018-09-27T14:28:05.388Z,99547.03
2018-09-27T14:30:33.792Z,99546.27
2018-09-27T14:33:02.375Z,99538.11
2018-09-27T14:35:32.835Z,99539.79
2018-09-27T14:38:02.125Z,99540.22
2018-09-27T14:40:30.667Z,99537.09
2018-09-27T14:43:01.123Z,99529.86
2018-09-27T14:45:32.993Z,99525.30
2018-09-27T14:48:01.942Z,99518.37
2018-09-27T14:50:35.113Z,99521.95
2018-09-27T14:53:06.276Z,99517.66
2018-09-27T14:55:38.593Z,99516.05
2018-09-27T14:58:11.967Z,99513.06
2018-09-27T15:00:43.429Z,99509.93
2018-09-27T15:03:14.726Z,99511.13
2018-09-27T15:05:47.918Z,99504.80
2018-09-27T15:08:18.820Z,99501.42
2018-09-27T15:10:51.452Z,99503.23
2018-09-27T15:13:23.413Z,99506.45
2018-09-27T15:15:54.004Z,99499.80
2018-09-27T15:18:22.708Z,99482.17
2018-09-27T15:20:51.073Z,99482.53
2018-09-27T15:23:19.547Z,99480.59
2018-09-27T15:25:47.888Z,99478.27
2018-09-27T15:28:16.235Z,99480.75
2018-09-27T15:30:44.654Z,99484.27
2018-09-27T15:33:13.107Z,99475.78
2018-09-27T15:35:41.560Z,99479.34
2018-09-27T15:38:09.960Z,99475.30
2018-09-27T15:40:38.422Z,99467.81
2018-09-27T15:43:06.955Z,99466.48
2018-09-27T15:45:35.396Z,99466.27
2018-09-27T15:48:03.860Z,99460.64
2018-09-27T15:50:32.257Z,99457.05
2018-09-27T15:53:00.723Z,99453.46
2018-09-27T15:55:29.074Z,99455.36
2018-09-27T15:57:57.440Z,99447.27
2018-09-27T16:00:25.911Z,99449.09
2018-09-27T16:02:54.905Z,99445.16
2018-09-27T16:05:23.454Z,99441.70
2018-09-27T16:07:51.850Z,99434.20
2018-09-27T16:10:20.279Z,99437.52
2018-09-27T16:12:48.781Z,99443.42
2018-09-27T16:15:17.198Z,99433.00
2018-09-27T16:17:45.638Z,99439.25
2018-09-27T16:20:13.906Z,99434.69
2018-09-27T16:22:42.219Z,99433.88
2018-09-27T16:25:10.518Z,99422.56
2018-09-27T16:27:38.844Z,99426.43
2018-09-27T16:30:07.644Z,99414.44
2018-09-27T16:32:36.160Z,99421.33
2018-09-27T16:35:04.475Z,99416.77
2018-09-27T16:37:32.830Z,99422.44
2018-09-27T16:40:01.203Z,99417.20
2018-09-27T16:42:29.523Z,99415.98
2018-09-27T16:44:57.841Z,99412.27
2018-09-27T16:47:26.850Z,99406.36
2018-09-27T16:49:56.707Z,99411.81
2018-09-27T16:52:25.568Z,99408.83
2018-09-27T16:55:56.798Z,99408.45
2018-09-27T16:58:26.532Z,99412.30
2018-09-27T17:00:55.292Z,99415.52
2018-09-27T17:03:23.674Z,99419.15
2018-09-27T17:05:52.016Z,99423.84
2018-09-27T17:08:20.361Z,99414.98
2018-09-27T17:10:48.719Z,99417.14
2018-09-27T17:13:17.060Z,99418.30
2018-09-27T17:15:45.405Z,99409.54
2018-09-27T17:18:13.805Z,99409.97
2018-09-27T17:20:42.287Z,99398.87
2018-09-27T17:23:10.643Z,99394.97
2018-09-27T17:25:39.051Z,99399.27
2018-09-27T17:28:07.359Z,99388.80
2018-09-27T17:30:35.963Z,99388.67
2018-09-27T17:33:04.443Z,99391.91
2018-09-27T17:35:32.770Z,99388.11
2018-09-27T17:38:01.190Z,99382.77
2018-09-27T17:40:30.056Z,99391.63
2018-09-27T17:42:58.451Z,99385.70
2018-09-27T17:45:26.826Z,99384.45
2018-09-27T17:47:55.180Z,99382.17
2018-09-27T17:50:23.627Z,99382.92
2018-09-27T17:52:53.512Z,99387.42
2018-09-27T17:55:22.087Z,99386.32
2018-09-27T17:57:51.002Z,99395.64
2018-09-27T18:00:19.316Z,99395.31
2018-09-27T18:02:47.874Z,99390.78
2018-09-27T18:05:19.272Z,99396.16
2018-09-27T18:07:44.694Z,99392.97
2018-09-27T18:10:15.460Z,99388.17
2018-09-27T18:12:44.898Z,99386.64
2018-09-27T18:15:13.458Z,99381.35
2018-09-27T18:17:42.661Z,99384.34
2018-09-27T18:20:11.176Z,99380.38
2018-09-27T18:22:40.259Z,99381.12
2018-09-27T18:25:08.587Z,99376.05
2018-09-27T18:27:36.975Z,99379.88
2018-09-27T18:30:05.600Z,99380.72
2018-09-27T18:32:34.632Z,99379.70
2018-09-27T18:35:03.813Z,99385.79
2018-09-27T18:37:32.912Z,99386.70
2018-09-27T18:40:02.232Z,99388.09
2018-09-27T18:42:30.916Z,99385.00
2018-09-27T18:44:59.336Z,99381.45
2018-09-27T18:47:27.817Z,99382.24
2018-09-27T18:49:56.251Z,99379.16
2018-09-27T18:52:24.972Z,99377.30
2018-09-27T18:54:54.652Z,99370.02
2018-09-27T18:57:23.018Z,99375.34
2018-09-27T18:59:51.640Z,99376.97
2018-09-27T19:02:21.065Z,99371.97
2018-09-27T19:04:50.023Z,99368.36
2018-09-27T19:07:19.110Z,99368.42
2018-09-27T19:09:48.232Z,99362.55
2018-09-27T19:12:17.311Z,99366.95
2018-09-27T19:14:46.505Z,99369.44
2018-09-27T19:17:15.264Z,99357.84
2018-09-27T19:19:43.759Z,99360.73
2018-09-27T19:22:13.097Z,99360.13
2018-09-27T19:24:42.336Z,99365.14
2018-09-27T19:27:11.061Z,99362.42
2018-09-27T19:29:39.852Z,99362.34
2018-09-27T19:32:08.326Z,99364.77
2018-09-27T19:34:37.114Z,99363.34
2018-09-27T19:37:07.650Z,99368.83
2018-09-27T19:39:37.450Z,99364.04
2018-09-27T19:42:05.823Z,99368.27
2018-09-27T19:44:34.390Z,99361.64
2018-09-27T19:47:02.896Z,99360.47
2018-09-27T19:49:33.085Z,99360.73
2018-09-27T19:52:01.704Z,99358.61
2018-09-27T19:54:30.585Z,99359.53
2018-09-27T19:56:59.509Z,99362.80
2018-09-27T19:59:28.061Z,99368.13
2018-09-27T20:01:56.840Z,99360.52
2018-09-27T20:04:25.585Z,99362.02
2018-09-27T20:06:54.517Z,99359.48
2018-09-27T20:09:23.373Z,99357.00
2018-09-27T20:11:52.284Z,99358.27
2018-09-27T20:14:20.950Z,99358.88
2018-09-27T20:16:49.765Z,99358.33
2018-09-27T20:19:18.499Z,99353.96
2018-09-27T20:21:47.303Z,99351.34
2018-09-27T20:24:16.155Z,99356.44
2018-09-27T20:26:44.808Z,99359.43
2018-09-27T20:29:13.769Z,99354.62
2018-09-27T20:31:42.491Z,99355.11
2018-09-27T20:34:10.942Z,99352.94
2018-09-27T20:36:39.247Z,99349.95
2018-09-27T20:39:07.860Z,99340.74
2018-09-27T20:41:36.355Z,99338.47
2018-09-27T20:44:05.145Z,99338.70
2018-09-27T20:46:33.524Z,99338.83
2018-09-27T20:49:01.885Z,99339.72
2018-09-27T20:51:30.237Z,99344.25
2018-09-27T20:54:00.795Z,99335.31
2018-09-27T20:56:29.114Z,99333.70
2018-09-27T20:58:57.511Z,99332.41
2018-09-27T21:01:25.837Z,99324.40
2018-09-27T21:03:54.170Z,99324.03
2018-09-27T21:06:22.550Z,99319.62
2018-09-27T21:08:50.921Z,99319.62
2018-09-27T21:11:19.244Z,99318.28
2018-09-27T21:13:47.617Z,99314.05
2018-09-27T21:16:16.410Z,99316.95
2018-09-27T21:18:44.911Z,99323.43
2018-09-27T21:21:13.315Z,99318.09
2018-09-27T21:23:41.798Z,99314.47
2018-09-27T21:26:10.211Z,99310.59
2018-09-27T21:28:38.698Z,99304.87
2018-09-27T21:31:07.176Z,99298.84
2018-09-27T21:33:35.723Z,99297.22
2018-09-27T21:36:04.342Z,99296.95
2018-09-27T21:38:32.760Z,99296.20
2018-09-27T21:41:01.099Z,99298.97
2018-09-27T21:43:29.619Z,99290.12
2018-09-27T21:45:57.969Z,99287.19
2018-09-27T21:48:26.354Z,99280.84
2018-09-27T21:50:54.714Z,99281.09
2018-09-27T21:53:23.098Z,99281.59
2018-09-27T21:55:51.408Z,99278.69
2018-09-27T21:58:19.896Z,99277.54
2018-09-27T22:00:51.419Z,99279.20
2018-09-27T22:03:20.667Z,99282.59
2018-09-27T22:05:49.099Z,99276.56
2018-09-27T22:08:17.476Z,99273.25
2018-09-27T22:10:45.841Z,99272.28
2018-09-27T22:13:14.147Z,99271.17
2018-09-27T22:15:42.523Z,99271.89
2018-09-27T22:18:10.838Z,99270.91
2018-09-27T22:20:39.201Z,99268.70
2018-09-27T22:23:07.599Z,99263.52
2018-09-27T22:25:36.019Z,99260.32
2018-09-27T22:28:04.342Z,99256.50
2018-09-27T22:30:32.713Z,99253.59
2018-09-27T22:33:01.065Z,99259.12
2018-09-27T22:35:29.387Z,99259.04
2018-09-27T22:37:57.792Z,99256.67
2018-09-27T22:40:26.135Z,99246.53
2018-09-27T22:42:54.512Z,99245.58
2018-09-27T22:45:22.855Z,99247.02
2018-09-27T22:47:51.193Z,99243.14
2018-09-27T22:50:19.547Z,99240.64
2018-09-27T22:52:47.900Z,99240.38
2018-09-27T22:55:16.267Z,99243.62
2018-09-27T22:57:44.639Z,99237.83
2018-09-27T23:00:13.055Z,99240.98
2018-09-27T23:02:41.710Z,99236.75
2018-09-27T23:05:10.126Z,99232.59
2018-09-27T23:07:38.488Z,99229.09
2018-09-27T23:10:07.149Z,99238.36
2018-09-27T23:12:35.588Z,99231.03
2018-09-27T23:15:03.921Z,99232.62
2018-09-27T23:17:32.263Z,99235.16
2018-09-27T23:20:00.570Z,99238.16
2018-09-27T23:22:28.902Z,99234.22
2018-09-27T23:24:57.253Z,99239.56
2018-09-27T23:27:25.591Z,99239.77
2018-09-27T23:29:53.955Z,99237.97
2018-09-27T23:32:22.300Z,99237.27
2018-09-27T23:34:50.668Z,99230.48
2018-09-27T23:37:19.019Z,99232.48
2018-09-27T23:39:47.347Z,99234.17
2018-09-27T23:42:15.764Z,99236.27
2018-09-27T23:44:44.132Z,99238.59
2018-09-27T23:47:12.453Z,99232.83
2018-09-27T23:49:40.856Z,99227.97
2018-09-27T23:52:09.175Z,99233.03
2018-09-27T23:54:37.512Z,99225.01
2018-09-27T23:57:05.892Z,99225.43
2018-09-27T23:59:34.286Z,99227.92
